Time;durP1;ratioP1;P1;durP2;ratioP2;P2;SDS_P1;SDS_P2;PMS_P1;PMS_P2;Temp;Humidity;BMP_temperature;BMP_pressure;BME280_temperature;BME280_humidity;BME280_pressure;Samples;Min_cycle;Max_cycle;Signal;HPM_P1;HPM_P2
2023/09/26 00:01:15;;;;;;;;;16.25;14.00;;;;;-143.90;100.00;75401.72;4989048;28;104002;-73
2023/09/26 00:03:42;;;;;;;;;10.75;10.25;;;;;-143.90;100.00;75391.38;4991634;28;103019;-73
2023/09/26 00:06:23;;;;;;;;;16.25;15.25;;;;;-143.90;100.00;75381.03;4991761;28;102128;-73
2023/09/26 00:08:52;;;;;;;;;19.00;18.00;;;;;-143.90;100.00;75372.75;4989623;27;102158;-73
2023/09/26 00:11:19;;;;;;;;;21.25;19.50;;;;;-143.90;100.00;75362.44;4989607;27;104151;-73
2023/09/26 00:13:48;;;;;;;;;15.25;12.00;;;;;-143.90;100.00;75358.28;4988549;28;102405;-73
2023/09/26 00:16:15;;;;;;;;;14.75;11.75;;;;;-143.90;100.00;75354.16;4990301;28;102190;-73
2023/09/26 00:18:42;;;;;;;;;10.25;10.00;;;;;-143.90;100.00;75345.88;4990405;28;102591;-74
2023/09/26 00:21:10;;;;;;;;;7.25;7.25;;;;;-143.90;100.00;75345.88;4990902;28;105356;-73
2023/09/26 00:23:36;;;;;;;;;8.00;7.75;;;;;-143.90;100.00;75350.03;4983711;28;102325;-73
2023/09/26 00:26:07;;;;;;;;;6.67;6.00;;;;;-143.90;100.00;75352.09;4967261;28;102030;-73
2023/09/26 00:28:34;;;;;;;;;5.25;5.00;;;;;-143.90;100.00;75364.50;4982430;28;107323;-73
2023/09/26 00:31:04;;;;;;;;;6.25;6.25;;;;;-143.90;100.00;75368.63;4983029;27;104175;-72
2023/09/26 00:33:32;;;;;;;;;8.00;7.50;;;;;-143.90;100.00;75387.22;4991484;27;101949;-73
2023/09/26 00:36:10;;;;;;;;;7.75;6.00;;;;;-143.90;100.00;75385.16;4993346;27;107137;-73
2023/09/26 00:38:37;;;;;;;;;8.00;7.25;;;;;-143.90;100.00;75389.31;4989309;28;102309;-74
2023/09/26 00:41:06;;;;;;;;;9.50;7.00;;;;;-143.90;100.00;75401.72;4990744;27;104072;-73
2023/09/26 00:43:35;;;;;;;;;7.25;6.00;;;;;-143.90;100.00;75403.78;4988556;27;104128;-74
2023/09/26 00:46:04;;;;;;;;;6.75;6.00;;;;;-143.90;100.00;75403.78;4991301;28;102449;-74
2023/09/26 00:48:31;;;;;;;;;8.50;7.00;;;;;-143.90;100.00;75405.84;4983540;28;102255;-73
2023/09/26 00:50:59;;;;;;;;;5.50;5.00;;;;;-143.90;100.00;75407.91;4976266;28;104304;-73
2023/09/26 00:53:26;;;;;;;;;7.50;6.50;;;;;-143.90;100.00;75401.72;4983463;28;102250;-73
2023/09/26 00:55:57;;;;;;;;;6.00;6.00;;;;;-143.90;100.00;75395.50;4978591;28;102253;-73
2023/09/26 00:58:25;;;;;;;;;7.00;7.00;;;;;-143.90;100.00;75385.16;4975318;28;102967;-74
2023/09/26 01:00:55;;;;;;;;;3.33;3.33;;;;;-143.90;100.00;75383.09;4972675;28;103997;-74
2023/09/26 01:03:22;;;;;;;;;7.00;6.75;;;;;-143.90;100.00;75372.75;4963246;28;102044;-74
2023/09/26 01:05:49;;;;;;;;;6.00;4.00;;;;;-143.90;100.00;75370.69;4976417;28;102156;-74
2023/09/26 01:08:17;;;;;;;;;4.00;3.00;;;;;-143.90;100.00;75381.03;4991074;28;102436;-73
2023/09/26 01:10:44;;;;;;;;;5.00;5.00;;;;;-143.90;100.00;75387.22;4989067;28;104083;-73
2023/09/26 01:13:11;;;;;;;;;6.00;5.00;;;;;-143.90;100.00;75393.44;4991178;27;105335;-75
2023/09/26 01:15:40;;;;;;;;;4.75;4.50;;;;;-143.90;100.00;75389.31;4989407;27;102331;-73
2023/09/26 01:18:08;;;;;;;;;3.50;2.00;;;;;-143.90;100.00;75395.50;4976809;27;102429;-73
2023/09/26 01:20:38;;;;;;;;;5.25;3.75;;;;;-143.90;100.00;75395.50;4987113;27;104320;-73
2023/09/26 01:23:06;;;;;;;;;4.00;4.00;;;;;-143.90;100.00;75395.50;4992986;28;102239;-73
2023/09/26 01:25:34;;;;;;;;;5.00;4.50;;;;;-143.90;100.00;75395.50;4988954;28;102588;-73
2023/09/26 01:28:07;;;;;;;;;2.67;2.67;;;;;-143.90;100.00;75414.13;4988195;28;102429;-73
2023/09/26 01:30:35;;;;;;;;;2.00;2.00;;;;;-143.90;100.00;75409.97;4983313;28;102924;-73
2023/09/26 01:33:03;;;;;;;;;3.00;3.00;;;;;-143.90;100.00;75407.91;4987850;28;101812;-73
2023/09/26 01:35:30;;;;;;;;;2.25;2.25;;;;;-143.90;100.00;75416.19;4980799;27;103033;-73
2023/09/26 01:37:57;;;;;;;;;1.33;1.00;;;;;-143.90;100.00;75405.84;4984263;28;102029;-73
2023/09/26 01:40:24;;;;;;;;;3.00;2.50;;;;;-143.90;100.00;75399.63;4988411;28;104064;-74
2023/09/26 01:42:51;;;;;;;;;4.50;4.50;;;;;-143.90;100.00;75407.91;4986394;28;102082;-73
2023/09/26 01:45:18;;;;;;;;;3.25;3.25;;;;;-143.90;100.00;75416.19;4986387;28;103639;-73
2023/09/26 01:47:50;;;;;;;;;5.00;4.00;;;;;-143.90;100.00;75403.78;4996045;28;103492;-73
2023/09/26 01:50:19;;;;;;;;;5.00;5.00;;;;;-143.90;100.00;75399.63;4969984;27;104173;-73
2023/09/26 01:52:46;;;;;;;;;4.00;4.00;;;;;-143.90;100.00;75387.22;4982880;27;102059;-73
2023/09/26 01:55:21;;;;;;;;;5.25;4.25;;;;;-143.90;100.00;75385.16;4984137;27;103373;-73
2023/09/26 01:57:50;;;;;;;;;17.50;14.25;;;;;-143.90;100.00;75370.69;4974353;28;103165;-73
2023/09/26 02:00:19;;;;;;;;;7.00;7.00;;;;;-143.90;100.00;75358.28;4969802;27;103981;-74
2023/09/26 02:02:48;;;;;;;;;5.50;5.00;;;;;-143.90;100.00;75352.09;4980238;28;102136;-73
2023/09/26 02:05:17;;;;;;;;;7.75;6.50;;;;;-143.90;100.00;75343.81;4991984;28;102637;-73
2023/09/26 02:07:45;;;;;;;;;4.50;4.25;;;;;-143.90;100.00;75337.63;4991638;27;102251;-74
2023/09/26 02:10:13;;;;;;;;;10.00;9.75;;;;;-143.90;100.00;75339.69;4989194;27;103629;-73
2023/09/26 02:12:58;;;;;;;;;10.25;9.00;;;;;-143.90;100.00;75325.22;4983836;28;102137;-73
2023/09/26 02:15:25;;;;;;;;;8.75;8.00;;;;;-143.90;100.00;75323.16;4986521;28;101785;-74
2023/09/26 02:17:52;;;;;;;;;5.00;5.00;;;;;-143.90;100.00;75308.66;4985720;27;102200;-74
2023/09/26 02:20:19;;;;;;;;;4.33;3.00;;;;;-143.90;100.00;75312.81;4984740;28;102912;-71
2023/09/26 02:22:48;;;;;;;;;7.50;7.00;;;;;-143.90;100.00;75308.66;4996515;27;101947;-74
2023/09/26 02:25:19;;;;;;;;;4.33;4.33;;;;;-143.90;100.00;75304.53;4993095;28;102169;-72
2023/09/26 02:27:47;;;;;;;;;5.33;5.33;;;;;-143.90;100.00;75300.41;4970436;27;102081;-73
2023/09/26 02:30:15;;;;;;;;;5.00;4.00;;;;;-143.90;100.00;75296.25;4987267;28;104161;-73
2023/09/26 02:32:42;;;;;;;;;5.00;4.33;;;;;-143.90;100.00;75285.94;4994236;28;102275;-73
2023/09/26 02:35:13;;;;;;;;;4.00;3.33;;;;;-143.90;100.00;75283.84;4990359;28;102463;-73
2023/09/26 02:37:40;;;;;;;;;4.33;4.33;;;;;-143.90;100.00;75283.84;4990213;27;102436;-73
2023/09/26 02:40:09;;;;;;;;;5.33;4.00;;;;;-143.90;100.00;75283.84;4972524;27;104324;-73
2023/09/26 02:42:38;;;;;;;;;5.00;4.33;;;;;-143.90;100.00;75273.53;4947974;28;104348;-73
2023/09/26 02:45:05;;;;;;;;;4.33;4.00;;;;;-143.90;100.00;75271.47;4992052;27;102088;-73
2023/09/26 02:47:32;;;;;;;;;4.00;3.00;;;;;-143.90;100.00;75271.47;4991880;28;102390;-73
2023/09/26 02:49:59;;;;;;;;;6.00;5.00;;;;;-143.90;100.00;75267.31;4994935;28;104063;-73
2023/09/26 02:52:25;;;;;;;;;3.00;1.00;;;;;-143.90;100.00;75256.97;4993996;28;101825;-73
2023/09/26 02:54:52;;;;;;;;;3.00;3.00;;;;;-143.90;100.00;75261.13;4991685;28;102245;-73
2023/09/26 02:57:22;;;;;;;;;5.00;4.67;;;;;-143.90;100.00;75261.13;4991931;28;102049;-73
2023/09/26 02:59:48;;;;;;;;;3.67;3.33;;;;;-143.90;100.00;75261.13;4988601;28;104405;-74
2023/09/26 03:02:15;;;;;;;;;3.00;3.00;;;;;-143.90;100.00;75254.91;4994692;28;102217;-73
2023/09/26 03:04:46;;;;;;;;;2.00;2.00;;;;;-143.90;100.00;75250.78;4987742;27;102437;-73
2023/09/26 03:07:12;;;;;;;;;1.33;1.33;;;;;-143.90;100.00;75250.78;4996016;27;102348;-73
2023/09/26 03:09:39;;;;;;;;;2.67;2.67;;;;;-143.90;100.00;75250.78;4992446;28;105155;-73
2023/09/26 03:12:06;;;;;;;;;1.00;1.00;;;;;-143.90;100.00;75246.66;4992143;27;101956;-73
2023/09/26 03:14:33;;;;;;;;;2.33;1.67;;;;;-143.90;100.00;75246.66;4991535;28;103638;-72
2023/09/26 03:17:00;;;;;;;;;3.00;3.00;;;;;-143.90;100.00;75244.59;4995657;27;102200;-73
2023/09/26 03:19:26;;;;;;;;;2.00;2.00;;;;;-143.90;100.00;75236.31;4987570;28;104092;-73
2023/09/26 03:21:53;;;;;;;;;3.67;3.33;;;;;-143.90;100.00;75230.09;4989230;28;102140;-73
2023/09/26 03:24:20;;;;;;;;;3.33;3.00;;;;;-143.90;100.00;75230.09;4988548;28;101877;-73
2023/09/26 03:26:46;;;;;;;;;3.00;3.00;;;;;-143.90;100.00;75232.19;4992048;28;101951;-73
2023/09/26 03:29:13;;;;;;;;;3.00;3.00;;;;;-143.90;100.00;75228.03;4993796;28;108676;-73
2023/09/26 03:31:40;;;;;;;;;5.33;5.33;;;;;-143.90;100.00;75232.19;4989023;28;102017;-73
2023/09/26 03:34:09;;;;;;;;;5.00;4.00;;;;;-143.90;100.00;75225.97;4987370;28;102132;-73
2023/09/26 03:36:36;;;;;;;;;5.00;5.00;;;;;-143.90;100.00;75232.19;4991961;28;102180;-73
2023/09/26 03:39:03;;;;;;;;;3.00;3.00;;;;;-143.90;100.00;75234.25;4989306;28;104043;-73
2023/09/26 03:41:33;;;;;;;;;5.00;4.00;;;;;-143.90;100.00;75232.19;4989286;28;104497;-73
2023/09/26 03:43:59;;;;;;;;;1.00;1.00;;;;;-143.90;100.00;75228.03;4986721;27;102068;-73
2023/09/26 03:46:26;;;;;;;;;5.00;3.33;;;;;-143.90;100.00;75225.97;4985284;28;102898;-73
2023/09/26 03:48:53;;;;;;;;;9.00;8.00;;;;;-143.90;100.00;75246.66;4988497;28;103356;-73
2023/09/26 03:51:19;;;;;;;;;8.00;8.00;;;;;-143.90;100.00;75242.50;4989399;28;103025;-73
2023/09/26 03:53:47;;;;;;;;;7.00;6.67;;;;;-143.90;100.00;75246.66;4989820;28;102323;-73
2023/09/26 03:56:13;;;;;;;;;5.33;4.00;;;;;-143.90;100.00;75240.44;4982210;28;101947;-73
2023/09/26 03:58:40;;;;;;;;;13.00;11.00;;;;;-143.90;100.00;75250.78;4982198;28;104173;-73
2023/09/26 04:01:15;;;;;;;;;11.67;8.33;;;;;-143.90;100.00;75250.78;4978832;27;102802;-74
2023/09/26 04:03:48;;;;;;;;;8.00;6.33;;;;;-143.90;100.00;75246.66;4988345;28;102499;-73
2023/09/26 04:06:16;;;;;;;;;6.67;6.00;;;;;-143.90;100.00;75244.59;4992714;28;102254;-73
2023/09/26 04:08:43;;;;;;;;;5.00;4.33;;;;;-143.90;100.00;75232.19;4989332;28;104154;-73
2023/09/26 04:11:16;;;;;;;;;4.00;4.00;;;;;-143.90;100.00;75236.31;4989047;28;103666;-73
2023/09/26 04:13:44;;;;;;;;;12.75;12.00;;;;;-143.90;100.00;75254.91;4986541;28;102166;-73
2023/09/26 04:16:11;;;;;;;;;8.75;7.75;;;;;-143.90;100.00;75254.91;4967284;28;104231;-73
2023/09/26 04:18:38;;;;;;;;;7.67;7.67;;;;;-143.90;100.00;75246.66;4970811;28;104150;-74
2023/09/26 04:21:07;;;;;;;;;8.33;8.00;;;;;-143.90;100.00;75234.25;4984463;28;106239;-73
2023/09/26 04:23:38;;;;;;;;;5.00;5.00;;;;;-143.90;100.00;75234.25;4957200;28;102258;-73
2023/09/26 04:26:11;;;;;;;;;5.33;5.33;;;;;-143.90;100.00;75230.09;4969832;28;102026;-74
2023/09/26 04:28:37;;;;;;;;;4.00;4.00;;;;;-143.90;100.00;75225.97;4959144;28;109467;-74
2023/09/26 04:31:04;;;;;;;;;2.67;2.00;;;;;-143.90;100.00;75223.91;4955004;28;102628;-74
2023/09/26 04:33:31;;;;;;;;;4.33;3.00;;;;;-143.90;100.00;75221.84;4964050;28;101890;-73
2023/09/26 04:35:57;;;;;;;;;2.00;2.00;;;;;-143.90;100.00;75238.38;4958282;28;107371;-74
2023/09/26 04:38:24;;;;;;;;;3.33;2.33;;;;;-143.90;100.00;75232.19;4954810;28;103677;-73
2023/09/26 04:40:51;;;;;;;;;2.33;2.33;;;;;-143.90;100.00;75225.97;4964042;28;102296;-73
2023/09/26 04:43:17;;;;;;;;;3.33;3.00;;;;;-143.90;100.00;75225.97;4964200;28;102180;-74
2023/09/26 04:45:44;;;;;;;;;2.00;2.00;;;;;-143.90;100.00;75230.09;4961348;28;102193;-73
2023/09/26 04:48:11;;;;;;;;;3.33;3.33;;;;;-143.90;100.00;75230.09;4956250;28;104237;-73
2023/09/26 04:50:39;;;;;;;;;4.00;3.33;;;;;-143.90;100.00;75234.25;4962683;28;102236;-73
2023/09/26 04:53:05;;;;;;;;;3.00;2.00;;;;;-143.90;100.00;75236.31;4968068;28;102292;-73
2023/09/26 04:55:35;;;;;;;;;2.00;2.00;;;;;-143.90;100.00;75236.31;4949319;28;102136;-73
2023/09/26 04:58:02;;;;;;;;;3.00;3.00;;;;;-143.90;100.00;75236.31;4967902;28;104384;-73
2023/09/26 05:00:31;;;;;;;;;7.00;6.00;;;;;-143.90;100.00;75242.50;4956729;28;104102;-73
2023/09/26 05:02:58;;;;;;;;;2.00;1.00;;;;;-143.90;100.00;75252.84;4922372;28;102171;-73
2023/09/26 05:05:25;;;;;;;;;7.67;7.33;;;;;-143.90;100.00;75259.06;4970062;28;102120;-72
2023/09/26 05:07:51;;;;;;;;;9.33;8.67;;;;;-143.90;100.00;75279.72;4966334;28;104515;-72
2023/09/26 05:10:18;;;;;;;;;5.67;5.00;;;;;-143.90;100.00;75273.53;4961547;28;101881;-73
2023/09/26 05:12:45;;;;;;;;;7.67;7.67;;;;;-143.90;100.00;75275.59;4964290;28;102293;-73
2023/09/26 05:15:15;;;;;;;;;8.00;7.25;;;;;-143.90;100.00;75281.78;4970027;28;109038;-73
2023/09/26 05:17:54;;;;;;;;;4.67;4.67;;;;;-143.90;100.00;75281.78;4966073;28;108573;-73
2023/09/26 05:20:21;;;;;;;;;5.00;5.00;;;;;-143.90;100.00;75273.53;4966059;28;102365;-73
2023/09/26 05:22:48;;;;;;;;;8.67;7.33;;;;;-143.90;100.00;75269.38;4971179;28;101935;-72
2023/09/26 05:25:15;;;;;;;;;7.00;6.67;;;;;-143.90;100.00;75275.59;4966441;28;102384;-72
2023/09/26 05:27:43;;;;;;;;;7.00;6.00;;;;;-143.90;100.00;75271.47;4967425;28;104175;-73
2023/09/26 05:30:12;;;;;;;;;5.00;5.00;;;;;-143.90;100.00;75265.25;4970314;28;101946;-72
2023/09/26 05:32:41;;;;;;;;;5.00;5.00;;;;;-143.90;100.00;75263.19;4966969;28;102256;-72
2023/09/26 05:35:09;;;;;;;;;4.00;4.00;;;;;-143.90;100.00;75254.91;4989072;28;102271;-73
2023/09/26 05:37:36;;;;;;;;;2.67;2.67;;;;;-143.90;100.00;75250.78;4964138;28;104376;-73
2023/09/26 05:40:09;;;;;;;;;3.33;3.33;;;;;-143.90;100.00;75256.97;4966112;28;108650;-73
2023/09/26 05:42:38;;;;;;;;;5.33;5.33;;;;;-143.90;100.00;75254.91;4958958;28;102301;-73
2023/09/26 05:45:06;;;;;;;;;7.33;4.67;;;;;-143.90;100.00;75250.78;4967113;28;102313;-72
2023/09/26 05:47:34;;;;;;;;;6.33;5.67;;;;;-143.90;100.00;75263.19;4965584;28;104445;-72
2023/09/26 05:50:06;;;;;;;;;9.25;8.50;;;;;-143.90;100.00;75265.25;4967261;27;102183;-73
2023/09/26 05:52:33;;;;;;;;;10.67;8.00;;;;;-143.90;100.00;75259.06;4965389;28;102384;-74
2023/09/26 05:55:00;;;;;;;;;5.33;5.00;;;;;-143.90;100.00;75246.66;4960195;28;102252;-73
2023/09/26 05:57:27;;;;;;;;;5.00;4.00;;;;;-143.90;100.00;75246.66;4969409;28;103007;-74
2023/09/26 05:59:54;;;;;;;;;12.25;11.00;;;;;-143.90;100.00;75259.06;4967546;28;102184;-73
2023/09/26 06:02:21;;;;;;;;;12.25;10.00;;;;;-143.90;100.00;75242.50;4972711;28;102269;-73
2023/09/26 06:04:48;;;;;;;;;7.00;7.00;;;;;-143.90;100.00;75234.25;4970648;28;102691;-73
2023/09/26 06:07:15;;;;;;;;;4.33;4.00;;;;;-143.90;100.00;75219.78;4969225;28;103945;-74
2023/09/26 06:09:41;;;;;;;;;3.00;3.00;;;;;-143.90;100.00;75209.44;4968569;28;102322;-73
2023/09/26 06:12:26;;;;;;;;;4.00;3.00;;;;;-143.90;100.00;75197.03;4969358;28;102092;-72
2023/09/26 06:14:53;;;;;;;;;5.00;5.00;;;;;-143.90;100.00;75217.69;4971571;28;102927;-73
2023/09/26 06:17:20;;;;;;;;;5.33;5.33;;;;;-143.90;100.00;75215.63;4970041;28;104083;-73
2023/09/26 06:19:47;;;;;;;;;5.00;5.00;;;;;-143.90;100.00;75203.22;4968048;28;101963;-73
2023/09/26 06:22:14;;;;;;;;;5.00;5.00;;;;;-143.90;100.00;75197.03;4971598;28;102936;-73
2023/09/26 06:24:42;;;;;;;;;4.00;4.00;;;;;-143.90;100.00;75188.75;4973624;28;102141;-73
2023/09/26 06:27:09;;;;;;;;;4.00;4.00;;;;;-143.90;100.00;75184.63;4967477;28;104031;-72
2023/09/26 06:29:39;;;;;;;;;2.00;2.00;;;;;-143.90;100.00;75166.03;4971502;28;102226;-73
2023/09/26 06:32:07;;;;;;;;;3.67;3.33;;;;;-143.90;100.00;75168.09;4979566;28;102446;-73
2023/09/26 06:34:35;;;;;;;;;5.67;5.00;;;;;-143.90;100.00;75176.34;4965162;28;103035;-72
2023/09/26 06:37:02;;;;;;;;;5.00;4.33;;;;;-143.90;100.00;75182.56;4968875;28;103637;-72
2023/09/26 06:39:29;;;;;;;;;12.25;11.50;;;;;-143.90;100.00;75221.84;4965188;28;102506;-74
2023/09/26 06:41:56;;;;;;;;;9.00;9.00;;;;;-143.90;100.00;75211.50;4967202;28;102182;-73
2023/09/26 06:44:23;;;;;;;;;7.00;6.67;;;;;-143.90;100.00;75217.69;4967244;28;102083;-73
2023/09/26 06:46:51;;;;;;;;;8.00;8.00;;;;;-143.90;100.00;75207.38;4965947;28;104021;-73
2023/09/26 06:49:19;;;;;;;;;1.67;0.67;;;;;-143.90;100.00;75205.28;4960667;28;102827;-73
2023/09/26 06:51:46;;;;;;;;;6.67;5.00;;;;;-143.90;100.00;75188.75;4968137;28;102489;-74
2023/09/26 06:54:13;;;;;;;;;5.00;5.00;;;;;-143.90;100.00;75184.63;4964340;28;102611;-73
2023/09/26 06:56:40;;;;;;;;;10.00;9.67;;;;;-143.90;100.00;75184.63;4978906;28;103382;-73
2023/09/26 06:59:08;;;;;;;;;7.00;6.00;;;;;-143.90;100.00;75176.34;4971850;28;101863;-73
2023/09/26 07:01:35;;;;;;;;;8.00;7.00;;;;;-143.90;100.00;75194.97;4967688;28;102018;-72
2023/09/26 07:04:03;;;;;;;;;8.00;8.00;;;;;-143.90;100.00;75188.75;4987535;28;104702;-72
2023/09/26 07:06:30;;;;;;;;;8.00;8.00;;;;;-143.90;100.00;75182.56;4965780;28;104518;-73
2023/09/26 07:08:58;;;;;;;;;14.00;13.25;;;;;-143.90;100.00;75182.56;4968567;28;102060;-73
2023/09/26 07:11:26;;;;;;;;;13.33;11.33;;;;;-143.90;100.00;75211.50;4965178;28;102113;-73
2023/09/26 07:13:52;;;;;;;;;9.67;8.67;;;;;-143.90;100.00;75197.03;4977012;28;102308;-73
2023/09/26 07:16:19;;;;;;;;;10.00;9.67;;;;;-143.90;100.00;75186.69;4968555;28;104188;-73
2023/09/26 07:18:46;;;;;;;;;7.00;6.00;;;;;-143.90;100.00;75182.56;4968838;28;102512;-73
2023/09/26 07:21:12;;;;;;;;;10.33;10.33;;;;;-143.90;100.00;75180.50;4950771;28;102002;-72
2023/09/26 07:23:39;;;;;;;;;6.67;6.67;;;;;-143.90;100.00;75176.34;4957248;28;102422;-74
2023/09/26 07:26:16;;;;;;;;;8.00;7.00;;;;;-143.90;100.00;75159.81;4959463;28;104022;-73
2023/09/26 07:28:44;;;;;;;;;3.00;1.33;;;;;-143.90;100.00;75143.28;4961958;28;102159;-73
2023/09/26 07:31:13;;;;;;;;;12.25;11.00;;;;;-143.90;100.00;75170.16;4971356;28;102139;-73
2023/09/26 07:33:41;;;;;;;;;14.33;11.67;;;;;-143.90;100.00;75168.09;4965956;28;102334;-73
2023/09/26 07:36:09;;;;;;;;;9.00;8.00;;;;;-143.90;100.00;75141.22;4967054;28;105390;-73
2023/09/26 07:38:36;;;;;;;;;8.67;7.00;;;;;-143.90;100.00;75122.59;4967320;28;102141;-73
2023/09/26 07:41:03;;;;;;;;;7.00;6.00;;;;;-143.90;100.00;75101.94;4971183;28;102287;-74
2023/09/26 07:43:33;;;;;;;;;7.00;5.33;;;;;-143.90;100.00;75099.88;4970806;28;102373;-74
2023/09/26 07:46:07;;;;;;;;;10.67;9.33;;;;;-143.90;100.00;75114.34;4950080;28;104316;-73
2023/09/26 07:48:35;;;;;;;;;8.33;7.33;;;;;-143.90;100.00;75104.00;4988933;28;102007;-73
2023/09/26 07:51:05;;;;;;;;;7.67;6.67;;;;;-143.90;99.76;75101.94;4955117;28;102024;-73
2023/09/26 07:53:32;;;;;;;;;5.33;5.33;;;;;-143.90;99.35;75097.78;4970470;28;102371;-73
2023/09/26 07:55:59;;;;;;;;;6.33;6.33;;;;;-143.90;99.07;75081.25;4968126;28;104232;-73
2023/09/26 07:58:26;;;;;;;;;7.00;6.00;;;;;-143.90;99.21;75075.06;4971263;28;102150;-73
2023/09/26 08:00:53;;;;;;;;;8.67;8.00;;;;;-143.90;98.79;75091.59;4963610;28;101986;-73
2023/09/26 08:03:20;;;;;;;;;13.00;11.67;;;;;-143.90;99.25;75106.06;4969001;28;102211;-74
2023/09/26 08:05:48;;;;;;;;;12.67;11.00;;;;;-143.90;100.00;75124.66;4948272;28;103639;-74
2023/09/26 08:08:16;;;;;;;;;12.00;12.00;;;;;-143.90;100.00;75116.41;4982636;28;102357;-73
2023/09/26 08:10:42;;;;;;;;;11.00;10.67;;;;;-143.90;100.00;75116.41;4955490;28;102022;-74
2023/09/26 08:13:09;;;;;;;;;14.75;14.00;;;;;-143.90;100.00;75122.59;4969580;28;102052;-73
2023/09/26 08:15:36;;;;;;;;;12.00;10.00;;;;;-143.90;100.00;75091.59;4962565;28;104180;-74
2023/09/26 08:18:04;;;;;;;;;8.00;7.00;;;;;-143.90;100.00;75077.13;4970724;28;102268;-74
2023/09/26 08:20:31;;;;;;;;;8.00;7.00;;;;;-143.90;98.61;75052.31;4967985;28;102537;-73
2023/09/26 08:22:58;;;;;;;;;5.00;5.00;;;;;-143.90;98.07;75031.63;4969718;28;101987;-73
2023/09/26 08:25:25;;;;;;;;;5.00;5.00;;;;;-143.90;96.55;75031.63;4964646;28;103403;-73
2023/09/26 08:27:52;;;;;;;;;6.33;5.33;;;;;-143.90;95.64;75023.38;4972406;28;103626;-74
2023/09/26 08:30:19;;;;;;;;;8.00;7.00;;;;;-143.90;97.72;75031.63;4965802;28;102240;-73
2023/09/26 08:32:46;;;;;;;;;8.33;6.33;;;;;-143.90;95.36;75039.91;4969573;28;102056;-72
2023/09/26 08:35:13;;;;;;;;;6.67;6.00;;;;;-143.90;96.21;75062.66;4964662;28;103974;-73
2023/09/26 08:37:40;;;;;;;;;11.00;9.00;;;;;-143.90;96.02;75037.84;4982272;28;102709;-73
2023/09/26 08:40:11;;;;;;;;;6.67;6.00;;;;;-143.90;95.95;75041.97;4961074;28;102087;-73
2023/09/26 08:42:41;;;;;;;;;7.67;7.33;;;;;-143.90;94.63;75031.63;4962132;28;102403;-73
2023/09/26 08:45:08;;;;;;;;;8.33;7.33;;;;;-143.90;94.64;75010.97;4964853;28;104032;-73
2023/09/26 08:47:39;;;;;;;;;15.33;15.33;;;;;-143.90;95.29;75056.44;4962417;28;102334;-74
2023/09/26 08:50:07;;;;;;;;;15.00;13.33;;;;;-143.90;97.18;75056.44;4965868;28;102403;-73
2023/09/26 08:52:34;;;;;;;;;13.00;12.33;;;;;-143.90;96.35;75023.38;4968952;28;102045;-74
2023/09/26 08:55:02;;;;;;;;;9.67;9.00;;;;;-143.90;96.55;74986.16;4969177;28;108810;-74
2023/09/26 08:57:30;;;;;;;;;9.67;8.00;;;;;-143.90;95.54;74961.34;4963545;28;103051;-74
2023/09/26 09:00:01;;;;;;;;;6.00;6.00;;;;;-143.90;93.39;74942.75;4966217;28;102190;-74
2023/09/26 09:02:31;;;;;;;;;10.67;8.33;;;;;-143.90;92.43;74932.41;4980034;28;102023;-74
2023/09/26 09:04:58;;;;;;;;;13.00;11.00;;;;;-143.90;92.92;74963.41;4968000;28;104010;-74
2023/09/26 09:07:27;;;;;;;;;16.33;16.33;;;;;-143.90;94.51;75006.84;4964276;28;102702;-74
2023/09/26 09:10:11;;;;;;;;;14.67;14.00;;;;;-143.90;95.97;74994.44;4967518;28;102430;-73
2023/09/26 09:12:42;;;;;;;;;11.33;11.00;;;;;-143.90;94.71;74965.50;4962800;28;102124;-73
2023/09/26 09:15:15;;;;;;;;;12.33;12.33;;;;;-143.90;94.87;74959.28;4966928;28;104011;-73
2023/09/26 09:17:43;;;;;;;;;18.67;16.67;;;;;-143.90;95.65;74975.81;4963198;28;101815;-74
2023/09/26 09:20:16;;;;;;;;;14.00;14.00;;;;;-143.90;95.24;74924.13;4957010;28;104472;-74
2023/09/26 09:22:46;;;;;;;;;12.00;11.00;;;;;-143.90;93.51;74903.47;4962471;28;102412;-73
2023/09/26 09:25:12;;;;;;;;;18.00;15.33;;;;;-143.90;93.90;74920.00;4962889;28;104253;-73
2023/09/26 09:27:43;;;;;;;;;12.00;11.00;;;;;-143.90;93.74;74926.22;4963156;28;102140;-73
2023/09/26 09:30:12;;;;;;;;;18.67;18.33;;;;;-143.90;93.46;74938.59;4973512;28;102127;-72
2023/09/26 09:32:42;;;;;;;;;16.00;15.00;;;;;-143.90;92.14;74909.66;4970259;28;102387;-73
2023/09/26 09:35:10;;;;;;;;;11.33;10.00;;;;;-143.90;91.73;74886.94;4963674;28;104041;-73
2023/09/26 09:37:37;;;;;;;;;16.67;15.33;;;;;-143.90;90.97;74880.72;4969987;28;102486;-74
2023/09/26 09:40:08;;;;;;;;;16.00;15.00;;;;;-143.90;91.63;74864.19;4976621;28;102487;-73
2023/09/26 09:42:35;;;;;;;;;22.33;17.33;;;;;-143.90;92.60;74905.53;4973670;28;101983;-73
2023/09/26 09:45:04;;;;;;;;;15.00;14.00;;;;;-143.90;91.73;74870.38;4944912;28;109891;-73
2023/09/26 09:47:35;;;;;;;;;13.00;11.67;;;;;-143.90;90.13;74835.25;4970148;28;101976;-73
2023/09/26 09:50:04;;;;;;;;;9.33;9.00;;;;;-143.90;89.38;74791.84;4971003;28;102445;-74
2023/09/26 09:52:33;;;;;;;;;8.33;7.33;;;;;-143.90;90.22;74771.16;4964519;28;102364;-73
2023/09/26 09:55:08;;;;;;;;;9.67;9.00;;;;;-143.90;88.15;74748.44;4952829;28;104658;-73
2023/09/26 09:57:39;;;;;;;;;14.33;13.33;;;;;-143.90;85.55;74771.16;4967581;28;102037;-73
2023/09/26 10:00:07;;;;;;;;;12.33;11.00;;;;;-143.90;87.11;74771.16;4987753;28;102348;-73
2023/09/26 10:02:35;;;;;;;;;10.00;9.50;;;;;-143.90;87.93;74736.03;4962366;28;102619;-73
2023/09/26 10:05:06;;;;;;;;;8.67;8.67;;;;;-143.90;87.79;74709.16;4968211;28;104448;-73
2023/09/26 10:07:34;;;;;;;;;15.67;13.33;;;;;-143.90;85.54;74692.63;4961956;28;102183;-73
2023/09/26 10:10:02;;;;;;;;;7.67;7.67;;;;;-143.90;84.26;74665.75;4965506;28;102297;-73
2023/09/26 10:12:29;;;;;;;;;11.67;10.00;;;;;-143.90;83.66;74667.81;4968936;28;103440;-74
2023/09/26 10:15:00;;;;;;;;;9.00;9.00;;;;;-143.90;85.05;74645.06;4969384;28;103772;-74
2023/09/26 10:17:27;;;;;;;;;10.67;9.67;;;;;-143.90;83.59;74638.88;4970609;28;102391;-74
2023/09/26 10:19:55;;;;;;;;;11.67;8.67;;;;;-143.90;84.76;74618.19;4967931;28;102106;-72
2023/09/26 10:22:33;;;;;;;;;12.00;12.00;;;;;-143.90;84.70;74591.31;4960782;28;102117;-73
2023/09/26 10:25:02;;;;;;;;;16.00;14.00;;;;;-143.90;84.11;74597.53;4970043;28;104184;-73
2023/09/26 10:27:31;;;;;;;;;11.00;10.00;;;;;-143.90;81.58;74568.59;4969607;28;103474;-74
2023/09/26 10:30:14;;;;;;;;;7.00;6.00;;;;;-143.90;81.39;74547.91;4957184;28;102502;-74
2023/09/26 10:32:43;;;;;;;;;7.00;7.00;;;;;-143.90;79.32;74521.03;4960721;28;102274;-74
2023/09/26 10:35:13;;;;;;;;;5.67;5.00;;;;;-143.90;80.65;74506.56;4966167;28;103684;-73
2023/09/26 10:37:49;;;;;;;;;9.00;9.00;;;;;-143.90;80.23;74506.56;4952655;28;102020;-74
2023/09/26 10:40:17;;;;;;;;;16.00;13.00;;;;;-143.90;79.11;74494.16;4946269;28;102375;-73
2023/09/26 10:42:46;;;;;;;;;9.33;6.00;;;;;-143.90;79.43;74461.09;4967512;28;102477;-74
2023/09/26 10:45:33;;;;;;;;;8.00;8.00;;;;;-143.90;79.65;74461.09;4964754;28;110025;-74
2023/09/26 10:48:04;;;;;;;;;10.33;8.00;;;;;-143.90;79.49;74432.16;4954233;28;102015;-74
2023/09/26 10:50:52;;;;;;;;;6.00;6.00;;;;;-143.90;78.37;74417.69;4960166;28;102242;-74
2023/09/26 10:53:19;;;;;;;;;4.00;4.00;;;;;-143.90;75.27;74409.41;4967671;28;102413;-74
2023/09/26 10:55:46;;;;;;;;;5.00;3.67;;;;;-143.90;76.86;74415.63;4954073;28;108095;-74
2023/09/26 10:58:20;;;;;;;;;5.00;5.00;;;;;-143.90;76.39;74390.81;4968583;28;102234;-74
2023/09/26 11:01:08;;;;;;;;;4.00;4.00;;;;;-143.90;76.70;74382.56;4957964;28;104406;-74
2023/09/26 11:03:35;;;;;;;;;3.67;3.67;;;;;-143.90;75.58;74376.34;4967337;28;102303;-74
2023/09/26 11:06:03;;;;;;;;;6.00;6.00;;;;;-143.90;75.57;74357.75;4961675;28;103613;-74